createdAt,value
2017-08-09T00:00:59.875Z,95.36
2017-08-09T00:02:12.472Z,94.87
2017-08-09T00:03:24.448Z,95.36
2017-08-09T00:04:36.079Z,95.45
2017-08-09T00:05:48.070Z,95.36
2017-08-09T00:07:00.646Z,95.17
2017-08-09T00:08:13.168Z,95.36
2017-08-09T00:09:25.474Z,95.26
2017-08-09T00:10:37.746Z,95.74
2017-08-09T00:11:49.760Z,95.07
2017-08-09T00:13:02.351Z,95.65
2017-08-09T00:14:14.921Z,94.97
2017-08-09T00:15:27.534Z,95.94
2017-08-09T00:16:39.837Z,95.65
2017-08-09T00:17:52.109Z,95.84
2017-08-09T00:19:04.107Z,95.65
2017-08-09T00:20:16.712Z,95.55
2017-08-09T00:21:28.996Z,95.55
2017-08-09T00:22:41.316Z,95.07
2017-08-09T00:23:53.288Z,95.45
2017-08-09T00:25:05.612Z,95.55
2017-08-09T00:26:18.183Z,95.55
2017-08-09T00:27:30.807Z,95.55
2017-08-09T00:28:43.126Z,95.74
2017-08-09T00:29:55.695Z,95.65
2017-08-09T00:31:07.975Z,95.65
2017-08-09T00:32:20.566Z,95.94
2017-08-09T00:33:32.866Z,95.74
2017-08-09T00:34:45.469Z,96.03
2017-08-09T00:35:57.795Z,95.84
2017-08-09T00:37:10.429Z,95.94
2017-08-09T00:38:22.789Z,96.22
2017-08-09T00:39:35.310Z,95.74
2017-08-09T00:40:47.847Z,95.74
2017-08-09T00:42:00.451Z,95.94
2017-08-09T00:43:13.021Z,95.84
2017-08-09T00:44:25.622Z,95.65
2017-08-09T00:45:37.951Z,95.65
2017-08-09T00:46:50.260Z,96.12
2017-08-09T00:48:02.855Z,95.84
2017-08-09T00:49:15.152Z,95.74
2017-08-09T00:50:27.755Z,95.74
2017-08-09T00:51:40.319Z,95.84
2017-08-09T00:52:52.297Z,96.22
2017-08-09T00:54:04.616Z,95.74
2017-08-09T00:55:17.196Z,95.65
2017-08-09T00:56:29.175Z,95.94
2017-08-09T00:57:41.451Z,96.03
2017-08-09T00:58:53.463Z,96.32
2017-08-09T01:00:06.050Z,96.03
2017-08-09T01:01:18.036Z,95.94
2017-08-09T01:02:30.593Z,96.12
2017-08-09T01:03:42.908Z,95.94
2017-08-09T01:04:55.177Z,95.84
2017-08-09T01:06:07.457Z,95.74
2017-08-09T01:07:20.083Z,95.74
2017-08-09T01:08:32.386Z,96.12
2017-08-09T01:09:45.007Z,96.22
2017-08-09T01:10:57.270Z,95.94
2017-08-09T01:12:09.267Z,96.12
2017-08-09T01:13:21.525Z,96.32
2017-08-09T01:14:33.558Z,96.8
2017-08-09T01:15:45.842Z,96.51
2017-08-09T01:16:58.440Z,96.12
2017-08-09T01:18:10.740Z,96.22
2017-08-09T01:19:23.366Z,96.03
2017-08-09T01:20:36.001Z,95.94
2017-08-09T01:21:48.277Z,96.12
2017-08-09T01:23:00.961Z,95.65
2017-08-09T01:24:13.514Z,96.22
2017-08-09T01:25:26.161Z,95.94
2017-08-09T01:26:38.443Z,95.74
2017-08-09T01:27:50.738Z,95.74
2017-08-09T01:29:03.010Z,95.65
2017-08-09T01:30:15.280Z,96.03
2017-08-09T01:31:27.659Z,95.74
2017-08-09T01:32:39.622Z,96.22
2017-08-09T01:33:51.900Z,96.42
2017-08-09T01:35:04.488Z,96.22
2017-08-09T01:36:16.267Z,95.55
2017-08-09T01:37:28.550Z,95.84
2017-08-09T01:38:40.889Z,96.32
2017-08-09T01:39:52.581Z,96.32
2017-08-09T01:41:04.555Z,95.84
2017-08-09T01:42:17.114Z,95.74
2017-08-09T01:43:29.393Z,96.32
2017-08-09T01:44:41.993Z,96.22
2017-08-09T01:45:54.484Z,96.22
2017-08-09T01:47:07.023Z,96.12
2017-08-09T01:48:19.595Z,95.94
2017-08-09T01:49:32.165Z,96.03
2017-08-09T01:50:44.720Z,96.51
2017-08-09T01:51:57.257Z,97.09
2017-08-09T01:53:09.865Z,97.57
2017-08-09T01:54:22.168Z,98.82
2017-08-09T01:55:34.776Z,99.99
2017-08-09T01:56:47.401Z,99.99
2017-08-09T01:58:00.018Z,99.99
2017-08-09T01:59:12.665Z,99.99
2017-08-09T02:00:25.278Z,99.99
2017-08-09T02:01:37.588Z,99.99
2017-08-09T02:02:50.156Z,99.99
2017-08-09T02:04:02.440Z,99.99
2017-08-09T02:05:15.055Z,99.99
2017-08-09T02:06:27.680Z,99.99
2017-08-09T02:07:39.993Z,99.99
2017-08-09T02:08:52.614Z,99.99
2017-08-09T02:10:04.592Z,99.99
2017-08-09T02:11:17.242Z,99.99
2017-08-09T02:12:29.237Z,99.99
2017-08-09T02:13:41.247Z,99.99
2017-08-09T02:14:53.513Z,99.99
2017-08-09T02:16:06.133Z,99.99
2017-08-09T02:17:18.046Z,99.99
2017-08-09T02:18:30.255Z,99.99
2017-08-09T02:19:42.937Z,99.99
2017-08-09T02:20:55.254Z,99.99
2017-08-09T02:22:07.866Z,99.99
2017-08-09T02:23:20.148Z,99.99
2017-08-09T02:24:32.403Z,99.99
2017-08-09T02:25:44.619Z,99.99
2017-08-09T02:26:56.838Z,99.99
2017-08-09T02:28:08.823Z,99.99
2017-08-09T02:29:21.350Z,99.99
2017-08-09T02:30:33.577Z,99.99
2017-08-09T02:31:46.173Z,99.99
2017-08-09T02:32:58.730Z,99.99
2017-08-09T02:34:11.323Z,99.99
2017-08-09T02:35:23.895Z,99.99
2017-08-09T02:36:36.143Z,99.99
2017-08-09T02:37:48.692Z,99.99
2017-08-09T02:39:01.364Z,99.99
2017-08-09T02:40:13.597Z,99.99
2017-08-09T02:41:25.865Z,99.99
2017-08-09T02:42:38.166Z,99.99
2017-08-09T02:43:50.194Z,99.99
2017-08-09T02:45:02.808Z,99.99
2017-08-09T02:46:15.067Z,99.99
2017-08-09T02:47:27.063Z,99.99
2017-08-09T02:48:39.390Z,99.99
2017-08-09T02:49:51.697Z,99.99
2017-08-09T02:51:04.515Z,99.99
2017-08-09T02:52:17.119Z,99.99
2017-08-09T02:53:29.441Z,99.99
2017-08-09T02:54:42.020Z,99.99
2017-08-09T02:55:53.975Z,99.99
2017-08-09T02:57:05.922Z,99.99
2017-08-09T02:58:18.540Z,99.99
2017-08-09T02:59:31.114Z,99.99
2017-08-09T03:00:43.733Z,99.99
2017-08-09T03:01:56.355Z,99.99
2017-08-09T03:03:08.686Z,99.99
2017-08-09T03:04:21.269Z,99.99
2017-08-09T03:05:33.870Z,99.99
2017-08-09T03:06:46.161Z,99.99
2017-08-09T03:07:58.725Z,99.99
2017-08-09T03:09:11.303Z,99.99
2017-08-09T03:10:23.324Z,99.99
2017-08-09T03:11:35.650Z,99.99
2017-08-09T03:12:48.133Z,99.99
2017-08-09T03:14:00.730Z,99.99
2017-08-09T03:15:13.295Z,99.99
2017-08-09T03:16:25.568Z,99.99
2017-08-09T03:17:38.168Z,99.99
2017-08-09T03:18:50.782Z,99.99
2017-08-09T03:20:03.368Z,99.99
2017-08-09T03:21:15.964Z,99.99
2017-08-09T03:22:28.594Z,99.99
2017-08-09T03:23:41.256Z,99.99
2017-08-09T03:24:53.837Z,99.99
2017-08-09T03:26:06.436Z,99.99
2017-08-09T03:27:19.080Z,99.99
2017-08-09T03:28:31.365Z,99.99
2017-08-09T03:29:43.388Z,99.99
2017-08-09T03:30:55.673Z,99.99
2017-08-09T03:32:07.662Z,99.99
2017-08-09T03:33:20.296Z,99.99
2017-08-09T03:34:32.528Z,99.99
2017-08-09T03:35:44.831Z,99.99
2017-08-09T03:36:57.177Z,99.99
2017-08-09T03:38:09.815Z,99.99
2017-08-09T03:39:21.801Z,99.99
2017-08-09T03:40:33.715Z,99.99
2017-08-09T03:41:46.003Z,99.99
2017-08-09T03:42:58.352Z,99.99
2017-08-09T03:44:10.653Z,99.99
2017-08-09T03:45:22.953Z,99.99
2017-08-09T03:46:35.245Z,99.99
2017-08-09T03:47:47.812Z,99.99
2017-08-09T03:49:00.345Z,99.99
2017-08-09T03:50:12.908Z,99.99
2017-08-09T03:51:25.389Z,99.99
2017-08-09T03:52:37.325Z,99.99
2017-08-09T03:53:49.895Z,99.99
2017-08-09T03:55:02.440Z,99.99
2017-08-09T03:56:15.013Z,99.99
2017-08-09T03:57:27.322Z,99.99
2017-08-09T03:58:39.904Z,99.99
2017-08-09T03:59:52.499Z,99.99
2017-08-09T04:01:04.454Z,99.99
2017-08-09T04:02:17.029Z,99.99
2017-08-09T04:03:29.606Z,99.99
2017-08-09T04:04:42.270Z,99.99
2017-08-09T04:05:54.843Z,99.99
2017-08-09T04:07:07.132Z,99.99
2017-08-09T04:08:19.722Z,99.99
2017-08-09T04:09:31.978Z,99.99
2017-08-09T04:10:44.580Z,99.99
2017-08-09T04:11:56.859Z,99.99
2017-08-09T04:13:09.741Z,99.99
2017-08-09T04:14:22.362Z,99.99
2017-08-09T04:15:34.905Z,99.99
2017-08-09T04:16:47.164Z,99.99
2017-08-09T04:17:59.788Z,99.99
2017-08-09T04:19:12.331Z,99.99
2017-08-09T04:20:24.648Z,99.99
2017-08-09T04:21:36.908Z,99.99
2017-08-09T04:22:48.878Z,99.99
2017-08-09T04:24:01.482Z,99.99
2017-08-09T04:25:13.421Z,99.99
2017-08-09T04:26:25.401Z,99.99
2017-08-09T04:27:38.066Z,99.99
2017-08-09T04:28:50.666Z,99.99
2017-08-09T04:30:03.205Z,99.99
2017-08-09T04:31:15.518Z,99.99
2017-08-09T04:32:27.500Z,99.99
2017-08-09T04:33:40.035Z,99.99
2017-08-09T04:34:52.663Z,99.99
2017-08-09T04:36:05.266Z,99.99
2017-08-09T04:37:17.235Z,99.99
2017-08-09T04:38:29.793Z,99.99
2017-08-09T04:39:42.364Z,99.99
2017-08-09T04:40:54.649Z,99.99
2017-08-09T04:42:06.956Z,99.99
2017-08-09T04:43:19.228Z,99.99
2017-08-09T04:44:31.459Z,99.99
2017-08-09T04:45:43.774Z,99.99
2017-08-09T04:46:56.416Z,99.99
2017-08-09T04:48:08.679Z,99.99
2017-08-09T04:49:21.289Z,99.99
2017-08-09T04:50:33.577Z,99.99
2017-08-09T04:51:46.205Z,99.99
2017-08-09T04:52:58.819Z,99.99
2017-08-09T04:54:11.105Z,99.99
2017-08-09T04:55:23.686Z,99.99
2017-08-09T04:56:36.301Z,99.99
2017-08-09T04:57:48.353Z,99.99
2017-08-09T04:58:59.975Z,99.99
2017-08-09T05:00:12.570Z,99.99
2017-08-09T05:01:24.822Z,99.99
2017-08-09T05:02:37.098Z,99.99
2017-08-09T05:03:49.645Z,99.99
2017-08-09T05:05:02.261Z,99.99
2017-08-09T05:06:14.569Z,99.99
2017-08-09T05:07:26.333Z,99.99
2017-08-09T05:08:38.861Z,99.99
2017-08-09T05:09:50.838Z,99.99
2017-08-09T05:11:03.409Z,99.99
2017-08-09T05:12:16.004Z,99.99
2017-08-09T05:13:27.674Z,99.99
2017-08-09T05:14:39.689Z,99.99
2017-08-09T05:15:52.306Z,99.99
2017-08-09T05:17:04.576Z,99.99
2017-08-09T05:18:16.484Z,99.99
2017-08-09T05:19:29.053Z,99.99
2017-08-09T05:20:41.388Z,99.99
2017-08-09T05:21:53.686Z,99.99
2017-08-09T05:23:06.518Z,99.99
2017-08-09T05:24:19.144Z,99.99
2017-08-09T05:25:31.386Z,99.99
2017-08-09T05:26:43.380Z,99.99
2017-08-09T05:27:55.633Z,99.99
2017-08-09T05:29:07.949Z,99.99
2017-08-09T05:30:19.902Z,99.99
2017-08-09T05:31:32.215Z,99.99
2017-08-09T05:32:44.736Z,99.99
2017-08-09T05:33:57.056Z,99.99
2017-08-09T05:35:09.334Z,99.99
2017-08-09T05:36:21.954Z,99.99
2017-08-09T05:37:33.870Z,99.99
2017-08-09T05:38:46.123Z,99.99
2017-08-09T05:39:58.672Z,99.99
2017-08-09T05:41:10.965Z,99.99
2017-08-09T05:42:23.299Z,99.99
2017-08-09T05:43:35.923Z,99.99
2017-08-09T05:44:48.511Z,99.99
2017-08-09T05:45:59.851Z,99.99
2017-08-09T05:47:12.124Z,99.99
2017-08-09T05:48:24.658Z,99.99
2017-08-09T05:49:36.557Z,99.99
2017-08-09T05:50:48.837Z,99.99
2017-08-09T05:52:01.400Z,99.99
2017-08-09T05:53:13.997Z,99.99
2017-08-09T05:54:26.297Z,99.99
2017-08-09T05:55:38.883Z,99.99
2017-08-09T05:56:50.893Z,99.99
2017-08-09T05:58:03.543Z,99.99
2017-08-09T05:59:14.921Z,99.99
2017-08-09T06:00:27.208Z,99.99
2017-08-09T06:01:39.776Z,99.99
2017-08-09T06:02:52.092Z,99.99
2017-08-09T06:04:04.730Z,99.99
2017-08-09T06:05:17.307Z,99.99
2017-08-09T06:06:30.182Z,99.99
2017-08-09T06:07:42.433Z,99.99
2017-08-09T06:08:54.712Z,99.99
2017-08-09T06:10:07.282Z,99.99
2017-08-09T06:11:19.265Z,99.99
2017-08-09T06:12:31.513Z,99.99
2017-08-09T06:13:43.471Z,99.99
2017-08-09T06:14:54.803Z,99.99
2017-08-09T06:16:07.113Z,99.99
2017-08-09T06:17:19.971Z,99.99
2017-08-09T06:18:32.595Z,99.99
2017-08-09T06:19:44.350Z,99.99
2017-08-09T06:20:56.009Z,99.99
2017-08-09T06:22:08.604Z,99.99
2017-08-09T06:23:20.947Z,99.99
2017-08-09T06:24:33.521Z,99.99
2017-08-09T06:25:46.156Z,99.99
2017-08-09T06:26:58.802Z,99.99
2017-08-09T06:28:10.722Z,99.99
2017-08-09T06:29:23.301Z,99.99
2017-08-09T06:30:35.604Z,99.99
2017-08-09T06:31:47.898Z,99.99
2017-08-09T06:33:00.200Z,99.99
2017-08-09T06:34:12.209Z,99.99
2017-08-09T06:35:24.829Z,99.99
2017-08-09T06:36:37.104Z,99.99
2017-08-09T06:37:49.114Z,99.35
2017-08-09T06:39:01.611Z,97.57
2017-08-09T06:40:14.274Z,95.93
2017-08-09T06:41:26.565Z,94.92
2017-08-09T06:42:38.535Z,95.93
2017-08-09T06:43:51.069Z,94.48
2017-08-09T06:45:02.745Z,93.41
2017-08-09T06:46:15.425Z,91.49
2017-08-09T06:47:27.719Z,90.37
2017-08-09T06:48:40.365Z,90.61
2017-08-09T06:49:53.006Z,88.62
2017-08-09T06:51:04.988Z,86.82
2017-08-09T06:52:16.997Z,85.22
2017-08-09T06:53:29.282Z,84.06
2017-08-09T06:54:41.608Z,84.1
2017-08-09T06:55:53.601Z,83.81
2017-08-09T06:57:05.550Z,82.01
2017-08-09T06:58:18.209Z,82.01
2017-08-09T06:59:29.852Z,82.34
2017-08-09T07:00:42.476Z,80.15
2017-08-09T07:01:55.041Z,80.05
2017-08-09T07:03:07.286Z,79.57
2017-08-09T07:04:19.614Z,78.11
2017-08-09T07:05:31.903Z,78.02
2017-08-09T07:06:44.217Z,78.4
2017-08-09T07:07:56.482Z,78.31
2017-08-09T07:09:08.783Z,78.94
2017-08-09T07:10:21.341Z,79.04
2017-08-09T07:11:33.933Z,78.75
2017-08-09T07:12:46.222Z,79.24
2017-08-09T07:13:58.201Z,78.66
2017-08-09T07:15:10.514Z,78.56
2017-08-09T07:16:23.147Z,77.62
2017-08-09T07:17:35.447Z,77.43
2017-08-09T07:18:48.025Z,76.65
2017-08-09T07:20:00.330Z,76.79
2017-08-09T07:21:12.864Z,77.18
2017-08-09T07:22:25.476Z,75.72
2017-08-09T07:23:37.779Z,75.92
2017-08-09T07:24:50.106Z,75.92
2017-08-09T07:26:02.387Z,76.31
2017-08-09T07:27:14.383Z,76.54
2017-08-09T07:28:26.394Z,76.5
2017-08-09T07:29:39.000Z,76.34
2017-08-09T07:30:51.050Z,76.34
2017-08-09T07:32:03.338Z,75.47
2017-08-09T07:33:15.933Z,73.24
2017-08-09T07:34:27.917Z,72.85
2017-08-09T07:35:40.502Z,71.97
2017-08-09T07:36:53.157Z,71.88
2017-08-09T07:38:05.485Z,72.55
2017-08-09T07:39:17.702Z,72.78
2017-08-09T07:40:30.028Z,72.78
2017-08-09T07:41:42.607Z,72.39
2017-08-09T07:42:54.944Z,69.38
2017-08-09T07:44:07.534Z,69.48
2017-08-09T07:45:19.786Z,68.6
2017-08-09T07:46:32.064Z,68.41
2017-08-09T07:47:44.305Z,67.93
2017-08-09T07:48:56.883Z,67.34
2017-08-09T07:50:09.114Z,67.44
2017-08-09T07:51:21.492Z,66.66
2017-08-09T07:52:34.102Z,65.69
2017-08-09T07:53:46.422Z,66.86
2017-08-09T07:54:58.078Z,67.15
2017-08-09T07:56:10.046Z,67.05
2017-08-09T07:57:22.664Z,67.99
2017-08-09T07:58:34.977Z,68.08
2017-08-09T07:59:47.612Z,68.73
2017-08-09T08:00:59.254Z,68.05
2017-08-09T08:02:11.613Z,68.54
2017-08-09T08:03:24.255Z,68.93
2017-08-09T08:04:36.282Z,68.31
2017-08-09T08:05:48.890Z,68.79
2017-08-09T08:07:00.578Z,68.6
2017-08-09T08:08:12.569Z,68.7
2017-08-09T08:09:25.219Z,67.6
2017-08-09T08:10:37.772Z,67.89
2017-08-09T08:11:50.104Z,67.79
2017-08-09T08:13:02.137Z,67.4
2017-08-09T08:14:14.745Z,66.53
2017-08-09T08:15:27.416Z,66.53
2017-08-09T08:16:40.017Z,66.72
2017-08-09T08:17:52.651Z,66.76
2017-08-09T08:19:05.241Z,66.47
2017-08-09T08:20:17.906Z,67.05
2017-08-09T08:21:30.182Z,66.89
2017-08-09T08:22:42.467Z,67.28
2017-08-09T08:23:55.067Z,66.69
2017-08-09T08:25:07.377Z,66.79
2017-08-09T08:26:19.655Z,66.79
2017-08-09T08:27:32.229Z,67.28
2017-08-09T08:28:44.221Z,67.47
2017-08-09T08:29:56.896Z,67.54
2017-08-09T08:31:09.239Z,66.76
2017-08-09T08:32:21.820Z,67.54
2017-08-09T08:33:34.092Z,68.12
2017-08-09T08:34:46.438Z,68.7
2017-08-09T08:35:58.176Z,69.28
2017-08-09T08:37:10.449Z,69.64
2017-08-09T08:38:22.412Z,69.93
2017-08-09T08:39:34.400Z,69.93
2017-08-09T08:40:47.003Z,69.83
2017-08-09T08:41:58.709Z,70.61
2017-08-09T08:43:10.434Z,70.31
2017-08-09T08:44:23.061Z,70.31
2017-08-09T08:45:35.393Z,69.73
2017-08-09T08:46:47.696Z,70.28
2017-08-09T08:48:00.328Z,71.44
2017-08-09T08:49:11.732Z,72.61
2017-08-09T08:50:24.316Z,73.25
2017-08-09T08:51:36.921Z,74.02
2017-08-09T08:52:48.939Z,74.22
2017-08-09T08:54:01.488Z,73.83
2017-08-09T08:55:13.786Z,74.12
2017-08-09T08:56:26.405Z,75.24
2017-08-09T08:57:38.667Z,75.63
2017-08-09T08:58:50.944Z,76.51
2017-08-09T09:00:03.139Z,76.12
2017-08-09T09:01:15.773Z,77.14
2017-08-09T09:02:28.369Z,77.82
2017-08-09T09:03:41.021Z,77.82
2017-08-09T09:04:52.399Z,78.5
2017-08-09T09:06:04.746Z,79.24
2017-08-09T09:07:17.355Z,79.24
2017-08-09T09:08:29.993Z,79.33
2017-08-09T09:09:41.660Z,78.75
2017-08-09T09:10:53.338Z,79.24
2017-08-09T09:12:05.953Z,79.43
2017-08-09T09:13:18.549Z,78.94
2017-08-09T09:14:31.169Z,80.01
2017-08-09T09:15:43.441Z,80.69
2017-08-09T09:16:55.782Z,79.52
2017-08-09T09:18:08.048Z,79.24
2017-08-09T09:19:20.721Z,79.91
2017-08-09T09:20:33.264Z,80.2
2017-08-09T09:21:45.734Z,79.43
2017-08-09T09:22:58.317Z,79.72
2017-08-09T09:24:10.976Z,79.33
2017-08-09T09:25:23.538Z,78.75
2017-08-09T09:26:35.603Z,78.46
2017-08-09T09:27:47.840Z,79.14
2017-08-09T09:29:00.442Z,79.24
2017-08-09T09:30:12.956Z,80.01
2017-08-09T09:31:25.236Z,80.16
2017-08-09T09:32:37.611Z,81.07
2017-08-09T09:33:49.577Z,80.2
2017-08-09T09:35:01.896Z,80.01
2017-08-09T09:36:14.496Z,79.91
2017-08-09T09:37:26.795Z,80.01
2017-08-09T09:38:39.063Z,80.01
2017-08-09T09:39:51.360Z,79.72
2017-08-09T09:41:03.979Z,79.91
2017-08-09T09:42:16.602Z,80.11
2017-08-09T09:43:29.447Z,79.91
2017-08-09T09:44:41.750Z,79.85
2017-08-09T09:45:53.734Z,79.85
2017-08-09T09:47:06.330Z,78.89
2017-08-09T09:48:18.892Z,78.83
2017-08-09T09:49:31.142Z,78.74
2017-08-09T09:50:43.798Z,78.74
2017-08-09T09:51:56.119Z,78.44
2017-08-09T09:53:08.792Z,78.67
2017-08-09T09:54:20.774Z,78.58
2017-08-09T09:55:33.051Z,78.19
2017-08-09T09:56:45.565Z,77.9
2017-08-09T09:57:57.876Z,77.9
2017-08-09T09:59:10.408Z,78.23
2017-08-09T10:00:23.090Z,77.75
2017-08-09T10:01:35.682Z,77.65
2017-08-09T10:02:47.974Z,76.78
2017-08-09T10:04:00.576Z,77.78
2017-08-09T10:05:13.232Z,78.27
2017-08-09T10:06:25.247Z,77.01
2017-08-09T10:07:37.529Z,76.46
2017-08-09T10:08:49.218Z,75.4
2017-08-09T10:10:01.587Z,74.65
2017-08-09T10:11:14.186Z,74.65
2017-08-09T10:12:26.266Z,74.6
2017-08-09T10:13:38.617Z,73.43
2017-08-09T10:14:51.215Z,72.94
2017-08-09T10:16:03.560Z,72.69
2017-08-09T10:17:15.241Z,70.84
2017-08-09T10:18:27.818Z,70
2017-08-09T10:19:40.473Z,68.84
2017-08-09T10:20:52.808Z,70.52
2017-08-09T10:22:05.488Z,70.52
2017-08-09T10:23:18.077Z,70.04
2017-08-09T10:24:30.097Z,68.96
2017-08-09T10:25:42.610Z,68.32
2017-08-09T10:26:54.933Z,67.73
2017-08-09T10:28:07.563Z,67.35
2017-08-09T10:29:20.163Z,66.69
2017-08-09T10:30:32.105Z,65.66
2017-08-09T10:31:44.731Z,64.91
2017-08-09T10:32:57.318Z,64.65
2017-08-09T10:34:09.973Z,63.6
2017-08-09T10:35:22.259Z,62.56
2017-08-09T10:36:34.563Z,60.94
2017-08-09T10:37:47.152Z,60.16
2017-08-09T10:38:59.484Z,57.97
2017-08-09T10:40:11.431Z,57.38
2017-08-09T10:41:24.051Z,58.58
2017-08-09T10:42:36.347Z,58.31
2017-08-09T10:43:48.950Z,58.54
2017-08-09T10:45:01.241Z,57.59
2017-08-09T10:46:13.899Z,56.93
2017-08-09T10:47:26.553Z,55.68
2017-08-09T10:48:39.204Z,55.22
2017-08-09T10:49:51.511Z,55.64
2017-08-09T10:51:04.087Z,54.98
2017-08-09T10:52:16.353Z,54.49
2017-08-09T10:53:28.693Z,53.83
2017-08-09T10:54:41.354Z,51.5
2017-08-09T10:55:53.985Z,50.61
2017-08-09T10:57:06.619Z,50.61
2017-08-09T10:58:19.194Z,51.52
2017-08-09T10:59:31.788Z,51.54
2017-08-09T11:00:44.434Z,52.62
2017-08-09T11:01:56.719Z,51.93
2017-08-09T11:03:09.055Z,52.06
2017-08-09T11:04:21.394Z,50.19
2017-08-09T11:05:33.420Z,49.8
2017-08-09T11:06:45.794Z,50.59
2017-08-09T11:07:58.144Z,49.9
2017-08-09T11:09:10.207Z,49.33
2017-08-09T11:10:22.875Z,48.86
2017-08-09T11:11:35.510Z,48.49
2017-08-09T11:12:47.265Z,48.19
2017-08-09T11:13:59.248Z,47.6
2017-08-09T11:15:11.956Z,47.23
2017-08-09T11:16:24.568Z,46.25
2017-08-09T11:17:36.851Z,45.78
2017-08-09T11:18:49.521Z,44.98
2017-08-09T11:20:01.847Z,45.1
2017-08-09T11:21:14.493Z,45.72
2017-08-09T11:22:26.737Z,45.72
2017-08-09T11:23:39.055Z,46.22
2017-08-09T11:24:51.057Z,45.42
2017-08-09T11:26:03.298Z,45.52
2017-08-09T11:27:15.317Z,46.31
2017-08-09T11:28:27.306Z,45.94
2017-08-09T11:29:39.938Z,44.95
2017-08-09T11:30:52.306Z,44.95
2017-08-09T11:32:04.637Z,43.59
2017-08-09T11:33:16.031Z,42.8
2017-08-09T11:34:28.610Z,42.4
2017-08-09T11:35:41.197Z,42.62
2017-08-09T11:36:53.487Z,42.84
2017-08-09T11:38:05.838Z,41.87
2017-08-09T11:39:18.169Z,41.87
2017-08-09T11:40:30.175Z,41.97
2017-08-09T11:41:42.493Z,41.77
2017-08-09T11:42:55.040Z,41.67
2017-08-09T11:44:07.342Z,41.85
2017-08-09T11:45:20.006Z,41.93
2017-08-09T11:46:32.053Z,42.03
2017-08-09T11:47:44.671Z,42.8
2017-08-09T11:48:56.678Z,43.29
2017-08-09T11:50:09.356Z,43.1
2017-08-09T11:51:21.748Z,42.6
2017-08-09T11:52:34.425Z,42.7
2017-08-09T11:53:46.730Z,42.82
2017-08-09T11:54:59.015Z,42.25
2017-08-09T11:56:11.606Z,41.16
2017-08-09T11:57:23.664Z,41.25
2017-08-09T11:58:35.936Z,40.78
2017-08-09T11:59:48.231Z,41.47
2017-08-09T12:01:00.531Z,41.57
2017-08-09T12:02:12.897Z,42.22
2017-08-09T12:03:25.204Z,42.3
2017-08-09T12:04:37.545Z,42.5
2017-08-09T12:05:49.273Z,42.29
2017-08-09T12:07:01.886Z,41.59
2017-08-09T12:08:13.978Z,42.08
2017-08-09T12:09:26.553Z,42.48
2017-08-09T12:10:39.143Z,41.41
2017-08-09T12:11:51.779Z,41.81
2017-08-09T12:13:04.079Z,41.24
2017-08-09T12:14:16.600Z,40.05
2017-08-09T12:15:28.875Z,40.55
2017-08-09T12:16:41.442Z,40.96
2017-08-09T12:17:53.721Z,41.75
2017-08-09T12:19:06.060Z,41.16
2017-08-09T12:20:18.413Z,40.07
2017-08-09T12:21:30.113Z,40.34
2017-08-09T12:22:42.123Z,40.84
2017-08-09T12:23:54.103Z,41.65
2017-08-09T12:25:06.471Z,41.16
2017-08-09T12:26:19.098Z,41.36
2017-08-09T12:27:31.681Z,41.33
2017-08-09T12:28:44.264Z,40.45
2017-08-09T12:29:56.305Z,40.25
2017-08-09T12:31:08.619Z,40.37
2017-08-09T12:32:21.239Z,41.04
2017-08-09T12:33:33.845Z,40.45
2017-08-09T12:34:46.431Z,39.97
2017-08-09T12:35:59.059Z,39.87
2017-08-09T12:37:11.417Z,39.08
2017-08-09T12:38:24.059Z,38.86
2017-08-09T12:39:36.379Z,38.86
2017-08-09T12:40:48.710Z,39.24
2017-08-09T12:42:01.308Z,40.21
2017-08-09T12:43:13.970Z,40.78
2017-08-09T12:44:26.009Z,40.69
2017-08-09T12:45:38.332Z,40.69
2017-08-09T12:46:50.601Z,40.98
2017-08-09T12:48:02.620Z,40.78
2017-08-09T12:49:14.965Z,40.69
2017-08-09T12:50:27.603Z,41.38
2017-08-09T12:51:39.888Z,40.41
2017-08-09T12:52:52.493Z,38.92
2017-08-09T12:54:04.848Z,39.12
2017-08-09T12:55:17.146Z,39.42
2017-08-09T12:56:29.723Z,39.22
2017-08-09T12:57:42.053Z,39.03
2017-08-09T12:58:54.317Z,39.12
2017-08-09T13:00:06.952Z,39.12
2017-08-09T13:01:18.698Z,38.15
2017-08-09T13:02:31.002Z,38.94
2017-08-09T13:03:43.652Z,38.84
2017-08-09T13:04:56.265Z,38.15
2017-08-09T13:06:08.607Z,38.35
2017-08-09T13:07:21.183Z,38.33
2017-08-09T13:08:33.773Z,38.23
2017-08-09T13:09:46.058Z,38.73
2017-08-09T13:10:58.115Z,38.82
2017-08-09T13:12:10.741Z,39.3
2017-08-09T13:13:23.383Z,39.32
2017-08-09T13:14:35.969Z,38.81
2017-08-09T13:15:48.061Z,40.29
2017-08-09T13:17:00.335Z,40.27
2017-08-09T13:18:13.014Z,39.28
2017-08-09T13:19:25.593Z,39.48
2017-08-09T13:20:38.163Z,39.06
2017-08-09T13:21:50.697Z,39.06
2017-08-09T13:23:03.010Z,39.86
2017-08-09T13:24:15.613Z,40.63
2017-08-09T13:25:27.860Z,39.94
2017-08-09T13:26:40.494Z,40.43
2017-08-09T13:27:53.119Z,40.21
2017-08-09T13:29:05.148Z,39.64
2017-08-09T13:30:17.432Z,39.52
2017-08-09T13:31:29.747Z,39.64
2017-08-09T13:32:42.393Z,39.84
2017-08-09T13:33:54.692Z,40.92
2017-08-09T13:35:06.747Z,40.23
2017-08-09T13:36:18.748Z,40.9
2017-08-09T13:37:31.401Z,42.46
2017-08-09T13:38:44.054Z,42.26
2017-08-09T13:39:56.729Z,41.47
2017-08-09T13:41:08.391Z,42.34
2017-08-09T13:42:20.352Z,42.93
2017-08-09T13:43:32.900Z,43.2
2017-08-09T13:44:45.206Z,41.93
2017-08-09T13:45:57.823Z,41.43
2017-08-09T13:47:10.419Z,40.82
2017-08-09T13:48:22.993Z,40.72
2017-08-09T13:49:35.301Z,41.11
2017-08-09T13:50:47.637Z,41.39
2017-08-09T13:51:59.308Z,41.88
2017-08-09T13:53:11.877Z,41.78
2017-08-09T13:54:24.178Z,41.69
2017-08-09T13:55:36.502Z,41.98
2017-08-09T13:56:48.862Z,42.86
2017-08-09T13:58:01.437Z,41.41
2017-08-09T13:59:13.459Z,41.59
2017-08-09T14:00:26.126Z,41.69
2017-08-09T14:01:38.768Z,41.39
2017-08-09T14:02:51.096Z,41.78
2017-08-09T14:04:03.436Z,41.98
2017-08-09T14:05:15.736Z,42.57
2017-08-09T14:06:28.343Z,42.08
2017-08-09T14:07:40.935Z,41.98
2017-08-09T14:08:53.320Z,41.17
2017-08-09T14:10:05.969Z,41.45
2017-08-09T14:11:18.537Z,43.02
2017-08-09T14:12:30.836Z,43.61
2017-08-09T14:13:43.453Z,44.37
2017-08-09T14:14:56.023Z,43.88
2017-08-09T14:16:08.376Z,42.79
2017-08-09T14:17:20.375Z,42.98
2017-08-09T14:18:32.988Z,43.45
2017-08-09T14:19:45.589Z,43.66
2017-08-09T14:20:58.229Z,43.74
2017-08-09T14:22:10.525Z,44.7
2017-08-09T14:23:22.871Z,45.49
2017-08-09T14:24:35.484Z,44.19
2017-08-09T14:25:47.806Z,44.19
2017-08-09T14:26:59.735Z,44.48
2017-08-09T14:28:12.059Z,44.95
2017-08-09T14:29:24.705Z,46.4
2017-08-09T14:30:37.000Z,46.67
2017-08-09T14:31:48.951Z,47.85
2017-08-09T14:33:01.589Z,47.53
2017-08-09T14:34:13.861Z,47.11
2017-08-09T14:35:25.830Z,47.38
2017-08-09T14:36:38.395Z,48.07
2017-08-09T14:37:50.980Z,47.85
2017-08-09T14:39:03.305Z,47.27
2017-08-09T14:40:15.314Z,47.53
2017-08-09T14:41:27.919Z,47.83
2017-08-09T14:42:40.474Z,48.58
2017-08-09T14:43:53.127Z,48
2017-08-09T14:45:05.724Z,49.27
2017-08-09T14:46:17.711Z,49.46
2017-08-09T14:47:30.304Z,48.56
2017-08-09T14:48:42.877Z,48.85
2017-08-09T14:49:55.524Z,49.15
2017-08-09T14:51:07.542Z,49.02
2017-08-09T14:52:19.829Z,49.22
2017-08-09T14:53:32.112Z,50.09
2017-08-09T14:54:44.416Z,49.61
2017-08-09T14:55:57.091Z,49.51
2017-08-09T14:57:09.075Z,49.1
2017-08-09T14:58:21.386Z,49.78
2017-08-09T14:59:33.703Z,49.97
2017-08-09T15:00:46.373Z,51.24
2017-08-09T15:01:59.012Z,52.19
2017-08-09T15:03:11.025Z,52.77
2017-08-09T15:04:23.334Z,52.09
2017-08-09T15:05:35.628Z,51.9
2017-08-09T15:06:48.241Z,51.61
2017-08-09T15:08:00.245Z,51.41
2017-08-09T15:09:12.832Z,51.8
2017-08-09T15:10:25.155Z,51.99
2017-08-09T15:11:37.739Z,51.8
2017-08-09T15:12:50.030Z,51.48
2017-08-09T15:14:02.690Z,52.06
2017-08-09T15:15:15.324Z,52.36
2017-08-09T15:16:27.591Z,52.36
2017-08-09T15:17:39.869Z,51.97
2017-08-09T15:18:51.834Z,51.48
2017-08-09T15:20:04.422Z,50.87
2017-08-09T15:21:16.712Z,51.07
2017-08-09T15:22:29.322Z,51.07
2017-08-09T15:23:41.644Z,52.23
2017-08-09T15:24:54.288Z,54.47
2017-08-09T15:26:06.870Z,53.4
2017-08-09T15:27:19.238Z,53.08
2017-08-09T15:28:31.505Z,52.11
2017-08-09T15:29:44.064Z,52.21
2017-08-09T15:30:56.729Z,52.67
2017-08-09T15:32:08.967Z,52.57
2017-08-09T15:33:21.333Z,52.86
2017-08-09T15:34:33.704Z,53.16